NPV4227 LIRN-EBBR
Flight info
| Callsign | NPV4227 |
|---|---|
| Flight time | 1h 48m |
| Altitude | 40000 |
| Route | ALAXI DCT INSOX DCT KATAR DCT ROKIB DCT UNIMI L12 MOGTI P66 KPT L608 TEDGO DCT IDOVI Z104 GESLO N852 LNO |
| Aircraft | B788/H-SDE1E2E3FGHIJ2J3J4J5M1RWXY/LB1D1 |
Departure
| Time | 2026-05-07 17:29 |
|---|---|
| Airport | Naples International Airport (LIRN) |
Arrival
| Time | 2026-05-07 19:18 |
|---|---|
| Airport | Brussels Airport (EBBR) |
| Time | Latitude | Longitude | Altitude | Speed | Heading |
|---|---|---|---|---|---|
| 2026-05-07 16:53 | 40.88004 | 14.28318 | 294 ft | 0 kts | 334° |
| 2026-05-07 17:23 | 40.88005 | 14.28318 | 294 ft | 0 kts | 334° |
| 2026-05-07 17:23 | 40.88025 | 14.28305 | 298 ft | 3 kts | 346° |
| 2026-05-07 17:24 | 40.88054 | 14.28317 | 296 ft | 6 kts | 46° |
| 2026-05-07 17:24 | 40.88058 | 14.28369 | 294 ft | 9 kts | 95° |
| 2026-05-07 17:24 | 40.88047 | 14.28492 | 293 ft | 16 kts | 98° |
| 2026-05-07 17:24 | 40.88040 | 14.28584 | 293 ft | 6 kts | 74° |
| 2026-05-07 17:25 | 40.88081 | 14.28668 | 290 ft | 16 kts | 53° |
| 2026-05-07 17:25 | 40.88164 | 14.28809 | 284 ft | 21 kts | 51° |
| 2026-05-07 17:25 | 40.88256 | 14.28969 | 280 ft | 21 kts | 53° |
| 2026-05-07 17:25 | 40.88349 | 14.29129 | 276 ft | 23 kts | 53° |
| 2026-05-07 17:26 | 40.88443 | 14.29293 | 272 ft | 21 kts | 52° |
| 2026-05-07 17:26 | 40.88538 | 14.29456 | 268 ft | 23 kts | 53° |
| 2026-05-07 17:26 | 40.88641 | 14.29636 | 262 ft | 25 kts | 52° |
| 2026-05-07 17:26 | 40.88736 | 14.29801 | 257 ft | 21 kts | 53° |
| 2026-05-07 17:27 | 40.88831 | 14.29963 | 252 ft | 23 kts | 53° |
| 2026-05-07 17:27 | 40.88934 | 14.30145 | 246 ft | 26 kts | 52° |
| 2026-05-07 17:27 | 40.89047 | 14.30334 | 238 ft | 18 kts | 56° |
| 2026-05-07 17:27 | 40.89100 | 14.30429 | 237 ft | 11 kts | 43° |
| 2026-05-07 17:28 | 40.89165 | 14.30448 | 236 ft | 10 kts | 338° |
| 2026-05-07 17:28 | 40.89205 | 14.30388 | 234 ft | 8 kts | 281° |
| 2026-05-07 17:28 | 40.89198 | 14.30337 | 237 ft | 4 kts | 243° |
| 2026-05-07 17:28 | 40.89180 | 14.30295 | 239 ft | 13 kts | 238° |
| 2026-05-07 17:29 | 40.89030 | 14.29979 | 247 ft | 71 kts | 238° |
| 2026-05-07 17:29 | 40.88663 | 14.29202 | 270 ft | 127 kts | 238° |
| 2026-05-07 17:29 | 40.88116 | 14.28035 | 508 ft | 155 kts | 240° |
| 2026-05-07 17:29 | 40.87600 | 14.26890 | 1335 ft | 148 kts | 248° |
| 2026-05-07 17:30 | 40.87779 | 14.25555 | 1733 ft | 159 kts | 315° |
| 2026-05-07 17:30 | 40.88746 | 14.24901 | 2295 ft | 160 kts | 336° |
| 2026-05-07 17:30 | 40.89510 | 14.23866 | 2852 ft | 163 kts | 297° |
| 2026-05-07 17:30 | 40.89810 | 14.22323 | 3253 ft | 188 kts | 276° |
| 2026-05-07 17:31 | 40.90000 | 14.20568 | 3808 ft | 206 kts | 286° |
| 2026-05-07 17:31 | 40.90633 | 14.18737 | 4293 ft | 229 kts | 298° |
| 2026-05-07 17:31 | 40.91398 | 14.16892 | 5257 ft | 230 kts | 297° |
| 2026-05-07 17:31 | 40.92130 | 14.14988 | 6137 ft | 234 kts | 295° |
| 2026-05-07 17:32 | 40.92987 | 14.13146 | 6947 ft | 240 kts | 317° |
| 2026-05-07 17:32 | 40.94476 | 14.12100 | 7544 ft | 256 kts | 347° |
| 2026-05-07 17:32 | 40.96330 | 14.11782 | 7877 ft | 282 kts | 355° |
| 2026-05-07 17:32 | 40.98329 | 14.11570 | 8622 ft | 290 kts | 355° |
| 2026-05-07 17:33 | 41.00348 | 14.11302 | 9509 ft | 294 kts | 353° |
| 2026-05-07 17:33 | 41.02401 | 14.10986 | 10212 ft | 305 kts | 353° |
| 2026-05-07 17:33 | 41.04602 | 14.10659 | 10422 ft | 332 kts | 353° |
| 2026-05-07 17:33 | 41.06990 | 14.10322 | 10679 ft | 354 kts | 353° |
| 2026-05-07 17:34 | 41.09440 | 14.09978 | 11549 ft | 356 kts | 353° |
| 2026-05-07 17:34 | 41.11927 | 14.09623 | 12289 ft | 362 kts | 353° |
| 2026-05-07 17:34 | 41.14447 | 14.09253 | 13090 ft | 367 kts | 352° |
| 2026-05-07 17:34 | 41.17002 | 14.08884 | 13841 ft | 372 kts | 352° |
| 2026-05-07 17:35 | 41.19499 | 14.08039 | 14527 ft | 372 kts | 332° |
| 2026-05-07 17:35 | 41.21641 | 14.06151 | 15177 ft | 372 kts | 317° |
| 2026-05-07 17:35 | 41.23636 | 14.03926 | 15853 ft | 375 kts | 316° |
| 2026-05-07 17:35 | 41.25614 | 14.01644 | 16533 ft | 379 kts | 315° |
| 2026-05-07 17:36 | 41.27629 | 13.99355 | 17173 ft | 383 kts | 316° |
| 2026-05-07 17:36 | 41.29668 | 13.97050 | 17834 ft | 385 kts | 312° |
| 2026-05-07 17:36 | 41.31510 | 13.94464 | 18422 ft | 387 kts | 308° |
| 2026-05-07 17:36 | 41.33362 | 13.91861 | 19048 ft | 388 kts | 309° |
| 2026-05-07 17:37 | 41.35223 | 13.89263 | 19665 ft | 389 kts | 309° |
| 2026-05-07 17:37 | 41.37082 | 13.86639 | 20269 ft | 390 kts | 309° |
| 2026-05-07 17:37 | 41.38939 | 13.84003 | 20869 ft | 391 kts | 309° |
| 2026-05-07 17:37 | 41.40778 | 13.81398 | 21434 ft | 392 kts | 309° |
| 2026-05-07 17:38 | 41.42679 | 13.78713 | 21982 ft | 394 kts | 309° |
| 2026-05-07 17:38 | 41.44537 | 13.76083 | 22531 ft | 395 kts | 309° |
| 2026-05-07 17:38 | 41.46420 | 13.73409 | 23061 ft | 397 kts | 309° |
| 2026-05-07 17:38 | 41.48313 | 13.70722 | 23563 ft | 398 kts | 309° |
| 2026-05-07 17:39 | 41.50216 | 13.68018 | 23950 ft | 401 kts | 309° |
| 2026-05-07 17:39 | 41.52127 | 13.65301 | 24325 ft | 403 kts | 309° |
| 2026-05-07 17:39 | 41.54051 | 13.62562 | 24686 ft | 406 kts | 309° |
| 2026-05-07 17:39 | 41.55988 | 13.59802 | 25042 ft | 408 kts | 309° |
| 2026-05-07 17:40 | 41.57933 | 13.57027 | 25395 ft | 411 kts | 308° |
| 2026-05-07 17:40 | 41.59893 | 13.54231 | 25762 ft | 413 kts | 308° |
| 2026-05-07 17:40 | 41.61864 | 13.51415 | 26111 ft | 415 kts | 308° |
| 2026-05-07 17:40 | 41.63841 | 13.48587 | 26459 ft | 418 kts | 308° |
| 2026-05-07 17:41 | 41.65828 | 13.45741 | 26807 ft | 420 kts | 308° |
| 2026-05-07 17:41 | 41.67829 | 13.42875 | 27166 ft | 422 kts | 308° |
| 2026-05-07 17:41 | 41.69814 | 13.40028 | 27520 ft | 425 kts | 307° |
| 2026-05-07 17:41 | 41.71834 | 13.37128 | 27892 ft | 427 kts | 307° |
| 2026-05-07 17:42 | 41.73867 | 13.34205 | 28251 ft | 430 kts | 307° |
| 2026-05-07 17:42 | 41.75051 | 13.32501 | 28448 ft | 431 kts | 307° |
| 2026-05-07 17:42 | 41.77096 | 13.29550 | 28807 ft | 434 kts | 307° |
| 2026-05-07 17:42 | 41.79158 | 13.26576 | 29165 ft | 436 kts | 308° |
| 2026-05-07 17:43 | 41.81453 | 13.23852 | 29552 ft | 447 kts | 318° |
| 2026-05-07 17:43 | 41.84132 | 13.21652 | 29912 ft | 458 kts | 328° |
| 2026-05-07 17:43 | 41.87132 | 13.20069 | 30251 ft | 468 kts | 335° |
| 2026-05-07 17:43 | 41.90237 | 13.18716 | 30575 ft | 469 kts | 335° |
| 2026-05-07 17:44 | 41.93348 | 13.17363 | 30911 ft | 471 kts | 335° |
| 2026-05-07 17:44 | 41.96470 | 13.16007 | 31257 ft | 472 kts | 335° |
| 2026-05-07 17:44 | 41.99600 | 13.14643 | 31586 ft | 474 kts | 335° |
| 2026-05-07 17:44 | 42.02741 | 13.13270 | 31902 ft | 475 kts | 335° |
| 2026-05-07 17:45 | 42.05892 | 13.11893 | 32198 ft | 478 kts | 335° |
| 2026-05-07 17:45 | 42.09062 | 13.10508 | 32515 ft | 479 kts | 335° |
| 2026-05-07 17:45 | 42.12240 | 13.09118 | 32803 ft | 481 kts | 335° |
| 2026-05-07 17:45 | 42.15431 | 13.07719 | 33124 ft | 483 kts | 335° |
| 2026-05-07 17:46 | 42.18641 | 13.06310 | 33418 ft | 485 kts | 335° |
| 2026-05-07 17:46 | 42.21860 | 13.04897 | 33667 ft | 488 kts | 334° |
| 2026-05-07 17:46 | 42.25096 | 13.03474 | 33896 ft | 490 kts | 334° |
| 2026-05-07 17:46 | 42.28342 | 13.02047 | 34163 ft | 492 kts | 334° |
| 2026-05-07 17:47 | 42.31594 | 13.00615 | 34512 ft | 491 kts | 334° |
| 2026-05-07 17:47 | 42.34832 | 12.99189 | 34883 ft | 489 kts | 334° |
| 2026-05-07 17:47 | 42.38060 | 12.97763 | 35241 ft | 488 kts | 334° |
| 2026-05-07 17:47 | 42.41285 | 12.96337 | 35593 ft | 487 kts | 334° |
| 2026-05-07 17:48 | 42.44501 | 12.94913 | 35940 ft | 486 kts | 334° |
| 2026-05-07 17:48 | 42.47708 | 12.93494 | 36293 ft | 484 kts | 334° |
| 2026-05-07 17:48 | 42.50914 | 12.92073 | 36602 ft | 484 kts | 333° |
| 2026-05-07 17:48 | 42.54106 | 12.90655 | 36931 ft | 482 kts | 333° |
| 2026-05-07 17:49 | 42.57290 | 12.89240 | 37257 ft | 481 kts | 333° |
| 2026-05-07 17:49 | 42.60471 | 12.87826 | 37580 ft | 480 kts | 333° |
| 2026-05-07 17:49 | 42.63599 | 12.86433 | 37917 ft | 479 kts | 333° |
| 2026-05-07 17:49 | 42.66762 | 12.85022 | 38270 ft | 478 kts | 333° |
| 2026-05-07 17:50 | 42.69921 | 12.83612 | 38614 ft | 477 kts | 334° |
| 2026-05-07 17:50 | 42.73071 | 12.82205 | 38890 ft | 476 kts | 334° |
| 2026-05-07 17:50 | 42.76209 | 12.80803 | 39216 ft | 474 kts | 334° |
| 2026-05-07 17:50 | 42.79354 | 12.79393 | 39319 ft | 477 kts | 334° |
| 2026-05-07 17:51 | 42.82505 | 12.77978 | 39528 ft | 477 kts | 334° |
| 2026-05-07 17:51 | 42.85661 | 12.76564 | 39729 ft | 478 kts | 334° |
| 2026-05-07 17:51 | 42.88822 | 12.75146 | 39936 ft | 479 kts | 334° |
| 2026-05-07 17:51 | 42.91998 | 12.73716 | 39966 ft | 483 kts | 334° |
| 2026-05-07 17:52 | 42.98384 | 12.70843 | 39960 ft | 481 kts | 334° |
| 2026-05-07 17:52 | 43.04724 | 12.67987 | 39967 ft | 479 kts | 336° |
| 2026-05-07 17:53 | 43.11247 | 12.65808 | 39972 ft | 483 kts | 339° |
| 2026-05-07 17:53 | 43.17798 | 12.63662 | 39976 ft | 485 kts | 339° |
| 2026-05-07 17:54 | 43.24362 | 12.61524 | 39977 ft | 485 kts | 339° |
| 2026-05-07 17:54 | 43.30922 | 12.59374 | 39981 ft | 484 kts | 339° |
| 2026-05-07 17:55 | 43.37485 | 12.57221 | 39977 ft | 485 kts | 340° |
| 2026-05-07 17:55 | 43.44044 | 12.55064 | 39990 ft | 485 kts | 339° |
| 2026-05-07 17:56 | 43.50601 | 12.52903 | 39981 ft | 484 kts | 339° |
| 2026-05-07 17:56 | 43.57156 | 12.50738 | 39985 ft | 484 kts | 339° |
| 2026-05-07 17:57 | 43.62602 | 12.48934 | 39990 ft | 485 kts | 339° |
| 2026-05-07 17:57 | 43.70288 | 12.46385 | 39992 ft | 486 kts | 340° |
| 2026-05-07 17:58 | 43.75750 | 12.44570 | 39995 ft | 485 kts | 340° |
| 2026-05-07 17:58 | 43.82317 | 12.42381 | 39995 ft | 485 kts | 340° |
| 2026-05-07 17:59 | 43.89945 | 12.39834 | 40005 ft | 485 kts | 339° |
| 2026-05-07 17:59 | 43.95406 | 12.38005 | 40001 ft | 485 kts | 340° |
| 2026-05-07 18:00 | 44.01968 | 12.35804 | 40004 ft | 486 kts | 340° |
| 2026-05-07 18:00 | 44.08532 | 12.33598 | 40004 ft | 485 kts | 340° |
| 2026-05-07 18:01 | 44.15085 | 12.31389 | 40006 ft | 485 kts | 340° |
| 2026-05-07 18:01 | 44.21639 | 12.29175 | 39996 ft | 485 kts | 340° |
| 2026-05-07 18:02 | 44.31478 | 12.25843 | 40000 ft | 485 kts | 340° |
| 2026-05-07 18:03 | 44.38044 | 12.23612 | 40009 ft | 486 kts | 340° |
| 2026-05-07 18:03 | 44.44614 | 12.21376 | 40006 ft | 486 kts | 340° |
| 2026-05-07 18:04 | 44.51188 | 12.19132 | 40002 ft | 486 kts | 340° |
| 2026-05-07 18:04 | 44.57759 | 12.16885 | 40002 ft | 486 kts | 340° |
| 2026-05-07 18:05 | 44.64326 | 12.14633 | 40003 ft | 485 kts | 340° |
| 2026-05-07 18:05 | 44.70850 | 12.12390 | 40006 ft | 486 kts | 340° |
| 2026-05-07 18:06 | 44.77419 | 12.10128 | 40003 ft | 486 kts | 340° |
| 2026-05-07 18:06 | 44.83984 | 12.07862 | 40008 ft | 485 kts | 340° |
| 2026-05-07 18:07 | 44.90547 | 12.05590 | 40008 ft | 486 kts | 340° |
| 2026-05-07 18:07 | 44.97119 | 12.03310 | 40004 ft | 487 kts | 340° |
| 2026-05-07 18:08 | 45.03703 | 12.01021 | 40002 ft | 487 kts | 340° |
| 2026-05-07 18:08 | 45.10289 | 11.98725 | 39995 ft | 488 kts | 340° |
| 2026-05-07 18:09 | 45.16890 | 11.96419 | 40002 ft | 488 kts | 340° |
| 2026-05-07 18:09 | 45.23485 | 11.94109 | 39989 ft | 488 kts | 340° |
| 2026-05-07 18:10 | 45.30077 | 11.91796 | 39990 ft | 488 kts | 340° |
| 2026-05-07 18:10 | 45.36659 | 11.89479 | 39994 ft | 487 kts | 340° |
| 2026-05-07 18:11 | 45.43247 | 11.87155 | 39994 ft | 488 kts | 341° |
| 2026-05-07 18:11 | 45.49828 | 11.84829 | 39992 ft | 487 kts | 341° |
| 2026-05-07 18:12 | 45.56408 | 11.82496 | 39998 ft | 487 kts | 341° |
| 2026-05-07 18:12 | 45.62995 | 11.80155 | 39997 ft | 488 kts | 341° |
| 2026-05-07 18:13 | 45.69592 | 11.77807 | 39999 ft | 489 kts | 341° |
| 2026-05-07 18:13 | 45.76186 | 11.75452 | 40004 ft | 488 kts | 341° |
| 2026-05-07 18:14 | 45.82770 | 11.73095 | 40012 ft | 488 kts | 341° |
| 2026-05-07 18:14 | 45.89366 | 11.70730 | 40016 ft | 488 kts | 341° |
| 2026-05-07 18:15 | 45.95767 | 11.67757 | 40040 ft | 480 kts | 330° |
| 2026-05-07 18:15 | 46.01801 | 11.63730 | 40035 ft | 482 kts | 330° |
| 2026-05-07 18:16 | 46.07887 | 11.59665 | 40032 ft | 483 kts | 330° |
| 2026-05-07 18:16 | 46.13980 | 11.55585 | 40034 ft | 483 kts | 330° |
| 2026-05-07 18:17 | 46.20075 | 11.51491 | 40011 ft | 483 kts | 330° |
| 2026-05-07 18:17 | 46.26180 | 11.47383 | 39988 ft | 483 kts | 330° |
| 2026-05-07 18:18 | 46.32264 | 11.43277 | 39967 ft | 483 kts | 330° |
| 2026-05-07 18:18 | 46.38353 | 11.39159 | 39949 ft | 483 kts | 330° |
| 2026-05-07 18:19 | 46.44440 | 11.35031 | 39948 ft | 483 kts | 330° |
| 2026-05-07 18:19 | 46.50528 | 11.30893 | 39950 ft | 483 kts | 330° |
| 2026-05-07 18:20 | 46.56613 | 11.26747 | 39959 ft | 483 kts | 330° |
| 2026-05-07 18:20 | 46.62691 | 11.22594 | 39980 ft | 483 kts | 330° |
| 2026-05-07 18:21 | 46.68769 | 11.18431 | 40006 ft | 483 kts | 330° |
| 2026-05-07 18:21 | 46.74852 | 11.14256 | 40030 ft | 482 kts | 330° |
| 2026-05-07 18:22 | 46.80922 | 11.10077 | 40044 ft | 483 kts | 330° |
| 2026-05-07 18:22 | 46.86987 | 11.05895 | 40045 ft | 482 kts | 330° |
| 2026-05-07 18:23 | 46.93091 | 11.01822 | 40047 ft | 481 kts | 332° |
| 2026-05-07 18:23 | 46.99202 | 10.97781 | 40045 ft | 483 kts | 332° |
| 2026-05-07 18:24 | 47.05335 | 10.93813 | 40017 ft | 480 kts | 332° |
| 2026-05-07 18:24 | 47.11452 | 10.89781 | 40025 ft | 481 kts | 332° |
| 2026-05-07 18:25 | 47.17515 | 10.85813 | 40043 ft | 484 kts | 332° |
| 2026-05-07 18:25 | 47.22748 | 10.82362 | 40032 ft | 484 kts | 332° |
| 2026-05-07 18:26 | 47.28897 | 10.78308 | 40037 ft | 484 kts | 332° |
| 2026-05-07 18:26 | 47.35035 | 10.74247 | 40033 ft | 483 kts | 332° |
| 2026-05-07 18:27 | 47.40929 | 10.69625 | 40061 ft | 476 kts | 321° |
| 2026-05-07 18:27 | 47.46403 | 10.64046 | 40042 ft | 479 kts | 322° |
| 2026-05-07 18:28 | 47.51887 | 10.58447 | 40046 ft | 479 kts | 322° |
| 2026-05-07 18:28 | 47.57355 | 10.52844 | 40051 ft | 477 kts | 321° |
| 2026-05-07 18:29 | 47.62797 | 10.47203 | 40048 ft | 478 kts | 321° |
| 2026-05-07 18:29 | 47.68247 | 10.41566 | 40050 ft | 478 kts | 321° |
| 2026-05-07 18:30 | 47.73690 | 10.35908 | 40050 ft | 478 kts | 321° |
| 2026-05-07 18:30 | 47.78866 | 10.29779 | 40053 ft | 475 kts | 317° |
| 2026-05-07 18:31 | 47.83987 | 10.23529 | 40057 ft | 476 kts | 317° |
| 2026-05-07 18:31 | 47.89115 | 10.17272 | 40056 ft | 477 kts | 317° |
| 2026-05-07 18:32 | 47.94239 | 10.10990 | 40058 ft | 477 kts | 317° |
| 2026-05-07 18:32 | 47.99364 | 10.04699 | 40057 ft | 477 kts | 317° |
| 2026-05-07 18:33 | 48.04483 | 9.98393 | 40054 ft | 477 kts | 317° |
| 2026-05-07 18:33 | 48.09565 | 9.92119 | 40051 ft | 478 kts | 317° |
| 2026-05-07 18:34 | 48.14688 | 9.85777 | 40060 ft | 477 kts | 317° |
| 2026-05-07 18:34 | 48.19803 | 9.79426 | 40058 ft | 478 kts | 317° |
| 2026-05-07 18:35 | 48.24916 | 9.73063 | 40060 ft | 477 kts | 317° |
| 2026-05-07 18:35 | 48.30020 | 9.66692 | 40055 ft | 477 kts | 317° |
| 2026-05-07 18:36 | 48.35015 | 9.60439 | 40051 ft | 477 kts | 317° |
| 2026-05-07 18:36 | 48.40062 | 9.53954 | 40054 ft | 477 kts | 316° |
| 2026-05-07 18:37 | 48.45130 | 9.47471 | 40068 ft | 478 kts | 317° |
| 2026-05-07 18:37 | 48.50192 | 9.40962 | 40054 ft | 478 kts | 316° |
| 2026-05-07 18:38 | 48.55245 | 9.34450 | 40054 ft | 478 kts | 316° |
| 2026-05-07 18:38 | 48.60293 | 9.27928 | 40062 ft | 477 kts | 316° |
| 2026-05-07 18:39 | 48.65341 | 9.21389 | 40048 ft | 478 kts | 316° |
| 2026-05-07 18:39 | 48.70387 | 9.14840 | 40052 ft | 478 kts | 316° |
| 2026-05-07 18:40 | 48.75429 | 9.08273 | 40052 ft | 478 kts | 316° |
| 2026-05-07 18:40 | 48.80430 | 9.01745 | 40057 ft | 477 kts | 316° |
| 2026-05-07 18:41 | 48.85456 | 8.95165 | 40062 ft | 477 kts | 316° |
| 2026-05-07 18:41 | 48.90483 | 8.88565 | 40067 ft | 478 kts | 316° |
| 2026-05-07 18:42 | 48.95511 | 8.81946 | 40066 ft | 479 kts | 316° |
| 2026-05-07 18:42 | 49.00542 | 8.75306 | 40065 ft | 479 kts | 316° |
| 2026-05-07 18:43 | 49.05570 | 8.68650 | 40069 ft | 479 kts | 316° |
| 2026-05-07 18:43 | 49.10604 | 8.61967 | 40064 ft | 479 kts | 316° |
| 2026-05-07 18:44 | 49.14781 | 8.56410 | 40065 ft | 479 kts | 316° |
| 2026-05-07 18:44 | 49.19794 | 8.49722 | 40060 ft | 478 kts | 316° |
| 2026-05-07 18:45 | 49.24791 | 8.43035 | 40060 ft | 478 kts | 316° |
| 2026-05-07 18:45 | 49.29795 | 8.36321 | 40058 ft | 478 kts | 316° |
| 2026-05-07 18:46 | 49.34796 | 8.29593 | 40060 ft | 478 kts | 316° |
| 2026-05-07 18:46 | 49.39793 | 8.22850 | 40060 ft | 478 kts | 316° |
| 2026-05-07 18:47 | 49.44790 | 8.16089 | 40062 ft | 479 kts | 316° |
| 2026-05-07 18:47 | 49.49781 | 8.09316 | 40065 ft | 478 kts | 316° |
| 2026-05-07 18:48 | 49.54767 | 8.02532 | 40063 ft | 478 kts | 316° |
| 2026-05-07 18:48 | 49.59755 | 7.95725 | 40060 ft | 479 kts | 316° |
| 2026-05-07 18:49 | 49.64759 | 7.88876 | 39574 ft | 487 kts | 316° |
| 2026-05-07 18:49 | 49.67292 | 7.85401 | 39019 ft | 488 kts | 316° |
| 2026-05-07 18:49 | 49.69829 | 7.81919 | 38409 ft | 488 kts | 316° |
| 2026-05-07 18:49 | 49.72368 | 7.78427 | 37737 ft | 488 kts | 316° |
| 2026-05-07 18:50 | 49.74897 | 7.74942 | 37086 ft | 487 kts | 316° |
| 2026-05-07 18:50 | 49.77421 | 7.71460 | 36447 ft | 486 kts | 316° |
| 2026-05-07 18:50 | 49.79935 | 7.67987 | 35830 ft | 484 kts | 316° |
| 2026-05-07 18:50 | 49.82410 | 7.64563 | 35239 ft | 482 kts | 316° |
| 2026-05-07 18:51 | 49.84903 | 7.61109 | 34642 ft | 480 kts | 316° |
| 2026-05-07 18:51 | 49.87386 | 7.57664 | 34063 ft | 478 kts | 317° |
| 2026-05-07 18:51 | 49.89856 | 7.54232 | 33397 ft | 475 kts | 317° |
| 2026-05-07 18:51 | 49.92312 | 7.50815 | 32715 ft | 473 kts | 317° |
| 2026-05-07 18:52 | 49.94752 | 7.47415 | 32061 ft | 471 kts | 317° |
| 2026-05-07 18:52 | 49.97183 | 7.44022 | 31404 ft | 468 kts | 317° |
| 2026-05-07 18:52 | 49.99600 | 7.40645 | 30808 ft | 466 kts | 317° |
| 2026-05-07 18:52 | 50.02005 | 7.37280 | 30185 ft | 464 kts | 317° |
| 2026-05-07 18:53 | 50.04290 | 7.33775 | 29506 ft | 460 kts | 308° |
| 2026-05-07 18:53 | 50.06109 | 7.29715 | 28848 ft | 455 kts | 297° |
| 2026-05-07 18:53 | 50.07395 | 7.25245 | 28197 ft | 451 kts | 287° |
| 2026-05-07 18:53 | 50.08120 | 7.20528 | 27568 ft | 447 kts | 277° |
| 2026-05-07 18:54 | 50.08422 | 7.15738 | 26927 ft | 443 kts | 279° |
| 2026-05-07 18:54 | 50.09233 | 7.11136 | 26338 ft | 441 kts | 292° |
| 2026-05-07 18:54 | 50.10690 | 7.06959 | 25758 ft | 439 kts | 302° |
| 2026-05-07 18:54 | 50.12459 | 7.03086 | 25144 ft | 439 kts | 305° |
| 2026-05-07 18:55 | 50.14266 | 6.99233 | 24544 ft | 439 kts | 303° |
| 2026-05-07 18:55 | 50.15912 | 6.95230 | 23959 ft | 438 kts | 299° |
| 2026-05-07 18:55 | 50.17462 | 6.91144 | 23337 ft | 437 kts | 300° |
| 2026-05-07 18:55 | 50.19079 | 6.87130 | 22650 ft | 437 kts | 302° |
| 2026-05-07 18:56 | 50.20754 | 6.83167 | 22095 ft | 436 kts | 302° |
| 2026-05-07 18:56 | 50.22380 | 6.79222 | 22064 ft | 431 kts | 301° |
| 2026-05-07 18:56 | 50.23957 | 6.75270 | 22064 ft | 438 kts | 301° |
| 2026-05-07 18:56 | 50.25583 | 6.71226 | 22070 ft | 440 kts | 301° |
| 2026-05-07 18:57 | 50.27239 | 6.67170 | 22064 ft | 446 kts | 301° |
| 2026-05-07 18:57 | 50.28920 | 6.63040 | 22068 ft | 453 kts | 301° |
| 2026-05-07 18:57 | 50.30598 | 6.58872 | 22069 ft | 453 kts | 301° |
| 2026-05-07 18:57 | 50.32276 | 6.54696 | 22069 ft | 454 kts | 301° |
| 2026-05-07 18:58 | 50.33958 | 6.50522 | 22074 ft | 453 kts | 301° |
| 2026-05-07 18:58 | 50.35642 | 6.46342 | 22079 ft | 453 kts | 301° |
| 2026-05-07 18:58 | 50.37318 | 6.42164 | 22074 ft | 453 kts | 301° |
| 2026-05-07 18:58 | 50.38914 | 6.38182 | 21942 ft | 409 kts | 301° |
| 2026-05-07 18:59 | 50.40372 | 6.34540 | 21304 ft | 381 kts | 301° |
| 2026-05-07 18:59 | 50.41729 | 6.31141 | 20838 ft | 354 kts | 301° |
| 2026-05-07 18:59 | 50.42985 | 6.27991 | 20459 ft | 329 kts | 301° |
| 2026-05-07 18:59 | 50.44199 | 6.24941 | 19959 ft | 328 kts | 301° |
| 2026-05-07 19:00 | 50.45400 | 6.21925 | 19646 ft | 325 kts | 301° |
| 2026-05-07 19:00 | 50.46592 | 6.18927 | 19260 ft | 323 kts | 301° |
| 2026-05-07 19:00 | 50.47779 | 6.15940 | 18901 ft | 321 kts | 301° |
| 2026-05-07 19:00 | 50.48958 | 6.12967 | 18535 ft | 320 kts | 301° |
| 2026-05-07 19:01 | 50.50130 | 6.10008 | 18146 ft | 318 kts | 301° |
| 2026-05-07 19:01 | 50.51295 | 6.07067 | 17720 ft | 316 kts | 301° |
| 2026-05-07 19:01 | 50.52453 | 6.04137 | 17297 ft | 315 kts | 301° |
| 2026-05-07 19:01 | 50.53603 | 6.01224 | 16899 ft | 313 kts | 300° |
| 2026-05-07 19:02 | 50.54747 | 5.98326 | 16497 ft | 311 kts | 300° |
| 2026-05-07 19:02 | 50.55883 | 5.95442 | 16108 ft | 309 kts | 300° |
| 2026-05-07 19:02 | 50.57013 | 5.92572 | 15718 ft | 308 kts | 300° |
| 2026-05-07 19:02 | 50.58137 | 5.89712 | 15316 ft | 306 kts | 300° |
| 2026-05-07 19:03 | 50.59255 | 5.86866 | 14947 ft | 305 kts | 300° |
| 2026-05-07 19:03 | 50.60367 | 5.84031 | 14558 ft | 304 kts | 300° |
| 2026-05-07 19:03 | 50.61473 | 5.81209 | 14170 ft | 302 kts | 300° |
| 2026-05-07 19:03 | 50.62574 | 5.78397 | 13787 ft | 301 kts | 300° |
| 2026-05-07 19:04 | 50.63668 | 5.75600 | 13377 ft | 299 kts | 300° |
| 2026-05-07 19:04 | 50.64758 | 5.72811 | 12945 ft | 298 kts | 300° |
| 2026-05-07 19:04 | 50.65823 | 5.70080 | 12561 ft | 296 kts | 300° |
| 2026-05-07 19:04 | 50.66912 | 5.67285 | 12163 ft | 294 kts | 300° |
| 2026-05-07 19:05 | 50.67980 | 5.64545 | 11771 ft | 293 kts | 300° |
| 2026-05-07 19:05 | 50.69042 | 5.61812 | 11377 ft | 292 kts | 300° |
| 2026-05-07 19:05 | 50.70084 | 5.59131 | 10988 ft | 290 kts | 301° |
| 2026-05-07 19:05 | 50.71134 | 5.56426 | 10594 ft | 289 kts | 301° |
| 2026-05-07 19:06 | 50.72178 | 5.53733 | 10203 ft | 287 kts | 301° |
| 2026-05-07 19:06 | 50.74249 | 5.48385 | 9403 ft | 284 kts | 301° |
| 2026-05-07 19:06 | 50.75274 | 5.45732 | 8996 ft | 282 kts | 301° |
| 2026-05-07 19:07 | 50.76293 | 5.43094 | 8593 ft | 280 kts | 301° |
| 2026-05-07 19:07 | 50.77306 | 5.40470 | 8186 ft | 279 kts | 301° |
| 2026-05-07 19:07 | 50.78309 | 5.37865 | 7773 ft | 277 kts | 301° |
| 2026-05-07 19:07 | 50.79309 | 5.35267 | 7368 ft | 275 kts | 301° |
| 2026-05-07 19:08 | 50.80301 | 5.32689 | 6983 ft | 274 kts | 301° |
| 2026-05-07 19:08 | 50.81284 | 5.30132 | 6672 ft | 268 kts | 301° |
| 2026-05-07 19:08 | 50.82260 | 5.27587 | 6146 ft | 272 kts | 301° |
| 2026-05-07 19:08 | 50.83225 | 5.25069 | 6087 ft | 266 kts | 301° |
| 2026-05-07 19:09 | 50.84194 | 5.22540 | 6092 ft | 271 kts | 301° |
| 2026-05-07 19:09 | 50.85171 | 5.19990 | 6093 ft | 271 kts | 301° |
| 2026-05-07 19:09 | 50.86145 | 5.17442 | 6091 ft | 271 kts | 301° |
| 2026-05-07 19:09 | 50.87107 | 5.14922 | 6087 ft | 260 kts | 301° |
| 2026-05-07 19:10 | 50.88071 | 5.12567 | 6080 ft | 253 kts | 306° |
| 2026-05-07 19:10 | 50.89075 | 5.10295 | 6072 ft | 251 kts | 304° |
| 2026-05-07 19:10 | 50.90024 | 5.08118 | 6066 ft | 244 kts | 304° |
| 2026-05-07 19:10 | 50.90982 | 5.05921 | 6071 ft | 242 kts | 304° |
| 2026-05-07 19:11 | 50.91933 | 5.03741 | 6074 ft | 240 kts | 304° |
| 2026-05-07 19:11 | 50.92882 | 5.01562 | 6078 ft | 240 kts | 304° |
| 2026-05-07 19:11 | 50.93991 | 4.99606 | 6073 ft | 240 kts | 323° |
| 2026-05-07 19:11 | 50.95408 | 4.98236 | 5935 ft | 241 kts | 331° |
| 2026-05-07 19:12 | 50.96901 | 4.97015 | 5627 ft | 241 kts | 334° |
| 2026-05-07 19:12 | 50.98406 | 4.95848 | 5331 ft | 240 kts | 334° |
| 2026-05-07 19:12 | 50.99721 | 4.94274 | 4985 ft | 241 kts | 303° |
| 2026-05-07 19:12 | 51.00140 | 4.91760 | 4651 ft | 239 kts | 266° |
| 2026-05-07 19:13 | 50.99917 | 4.89148 | 4349 ft | 238 kts | 262° |
| 2026-05-07 19:13 | 50.99687 | 4.86546 | 4045 ft | 239 kts | 262° |
| 2026-05-07 19:13 | 50.99458 | 4.83997 | 4000 ft | 229 kts | 261° |
| 2026-05-07 19:13 | 50.98806 | 4.81756 | 3975 ft | 226 kts | 229° |
| 2026-05-07 19:14 | 50.97715 | 4.80004 | 3999 ft | 218 kts | 223° |
| 2026-05-07 19:14 | 50.96640 | 4.78403 | 4007 ft | 207 kts | 222° |
| 2026-05-07 19:14 | 50.95700 | 4.76738 | 3992 ft | 201 kts | 235° |
| 2026-05-07 19:14 | 50.95068 | 4.74731 | 3716 ft | 207 kts | 248° |
| 2026-05-07 19:15 | 50.94568 | 4.72628 | 3399 ft | 202 kts | 249° |
| 2026-05-07 19:15 | 50.94092 | 4.70570 | 3017 ft | 200 kts | 250° |
| 2026-05-07 19:15 | 50.93633 | 4.68575 | 2991 ft | 188 kts | 250° |
| 2026-05-07 19:15 | 50.93184 | 4.66631 | 2796 ft | 193 kts | 250° |
| 2026-05-07 19:16 | 50.92724 | 4.64648 | 2391 ft | 190 kts | 250° |
| 2026-05-07 19:16 | 50.92288 | 4.62708 | 1986 ft | 182 kts | 250° |
| 2026-05-07 19:16 | 50.91862 | 4.60852 | 1559 ft | 175 kts | 250° |
| 2026-05-07 19:16 | 50.91456 | 4.59098 | 1145 ft | 165 kts | 250° |
| 2026-05-07 19:17 | 50.91072 | 4.57435 | 879 ft | 156 kts | 250° |
| 2026-05-07 19:17 | 50.90710 | 4.55862 | 646 ft | 152 kts | 249° |
| 2026-05-07 19:17 | 50.90346 | 4.54276 | 455 ft | 156 kts | 250° |
| 2026-05-07 19:17 | 50.89973 | 4.52665 | 274 ft | 157 kts | 251° |
| 2026-05-07 19:18 | 50.89615 | 4.51110 | 180 ft | 128 kts | 250° |
| 2026-05-07 19:18 | 50.89422 | 4.50279 | 182 ft | 48 kts | 250° |
| 2026-05-07 19:18 | 50.89343 | 4.49935 | 183 ft | 19 kts | 250° |
| 2026-05-07 19:18 | 50.89339 | 4.49754 | 183 ft | 14 kts | 288° |
| 2026-05-07 19:19 | 50.89383 | 4.49642 | 177 ft | 9 kts | 306° |
| 2026-05-07 19:19 | 50.89388 | 4.49632 | 176 ft | 4 kts | 306° |
| 2026-05-07 19:19 | 50.89430 | 4.49542 | 173 ft | 14 kts | 308° |
| 2026-05-07 19:19 | 50.89494 | 4.49409 | 170 ft | 16 kts | 307° |
| 2026-05-07 19:20 | 50.89549 | 4.49296 | 165 ft | 10 kts | 307° |
| 2026-05-07 19:20 | 50.89609 | 4.49252 | 161 ft | 12 kts | 9° |
| 2026-05-07 19:20 | 50.89709 | 4.49286 | 154 ft | 17 kts | 13° |
| 2026-05-07 19:20 | 50.89749 | 4.49303 | 152 ft | 0 kts | 17° |
| 2026-05-07 19:23 | 50.89757 | 4.49306 | 152 ft | 6 kts | 17° |
| 2026-05-07 19:23 | 50.89829 | 4.49341 | 147 ft | 14 kts | 15° |
| 2026-05-07 19:23 | 50.89914 | 4.49310 | 142 ft | 14 kts | 326° |
| 2026-05-07 19:23 | 50.90016 | 4.49296 | 138 ft | 17 kts | 14° |
| 2026-05-07 19:24 | 50.90083 | 4.49323 | 136 ft | 9 kts | 14° |
| 2026-05-07 19:24 | 50.90153 | 4.49352 | 136 ft | 13 kts | 14° |
| 2026-05-07 19:24 | 50.90228 | 4.49382 | 129 ft | 0 kts | 14° |
| 2026-05-07 19:25 | 50.90262 | 4.49397 | 133 ft | 9 kts | 14° |
| 2026-05-07 19:25 | 50.90335 | 4.49369 | 126 ft | 11 kts | 328° |
| 2026-05-07 19:25 | 50.90403 | 4.49311 | 127 ft | 11 kts | 335° |
| 2026-05-07 19:26 | 50.90465 | 4.49266 | 123 ft | 0 kts | 336° |
| 2026-05-07 19:26 | 50.90476 | 4.49258 | 126 ft | 4 kts | 336° |
| 2026-05-07 19:26 | 50.90507 | 4.49236 | 127 ft | 5 kts | 335° |
| 2026-05-07 19:26 | 50.90525 | 4.49223 | 125 ft | 0 kts | 335° |
| 2026-05-07 19:30 | 50.90526 | 4.49222 | 125 ft | 0 kts | 335° |
| 2026-05-07 19:30 | 50.90568 | 4.49192 | 127 ft | 12 kts | 335° |
| 2026-05-07 19:30 | 50.90636 | 4.49135 | 124 ft | 11 kts | 312° |
| 2026-05-07 19:30 | 50.90639 | 4.49061 | 122 ft | 6 kts | 249° |
| 2026-05-07 19:31 | 50.90619 | 4.48981 | 122 ft | 9 kts | 247° |
| 2026-05-07 19:31 | 50.90575 | 4.48867 | 122 ft | 9 kts | 207° |
| 2026-05-07 19:31 | 50.90544 | 4.48866 | 123 ft | 6 kts | 160° |
| 2026-05-07 19:31 | 50.90510 | 4.48888 | 125 ft | 0 kts | 156° |